Aviation Digital Data Service (ADDS)

Output produced by METARs form (1453 UTC 19 January 2019)
found at http://www.aviationweather.gov/metar/data/
 
Forecast for: FCPP (POINTE-NOIRE , CG)
Text: TAF FCPP 191100Z 1912/2012 18004KT 9999 SCT010 BKN026
Forecast period: 1200 to 1300 UTC 19 January 2019
Forecast type: FROM: standard forecast or significant change
Winds: from the S (180 degrees) at 5 MPH (4 knots; 2.1 m/s)
Visibility: 6 or more miles 10+ km)
Ceiling: 2600 feet AGL
Clouds: scattered clouds at 1000 feet AGL
broken clouds at 2600 feet AGL
Weather: no significant weather forecast for this period
Text: BECMG 1913/1915 SCT010 SCT026 FEW030CB
Forecast period: 1300 UTC 19 January 2019 to 1200 UTC 20 January 2019
Forecast type: BECOMING: Conditions expected to become as follows by 1500 UTC 19 January 2019
Winds: from the S (180 degrees) at 5 MPH (4 knots; 2.1 m/s)
Visibility: 6 or more miles 10+ km)
Ceiling: at least 12,000 feet AGL
Clouds: scattered clouds at 1000 feet AGL
scattered clouds at 2600 feet AGL
few clouds at 3000 feet AGL
Weather: no significant weather forecast for this period